Time,TemperatureF,DewpointF,PressureIn,WindDirection,WindDirectionDegrees,WindSpeedMPH,WindSpeedGustMPH,Humidity,HourlyPrecipIn,Conditions,Clouds,dailyrainin,SolarRadiationWatts/m^2,SoftwareType,DateUTC
2013-03-26 00:00:00,35.2,26.7,29.66,NW,305,1.2,1.2,71,0.00,OVC,,0.00,0.0,WeatherDisplay:10.37,2013-03-26 04:00:00,
2013-03-26 00:02:00,35.2,26.7,29.66,NW,305,2.0,2.0,71,0.00,OVC,,0.00,0.0,WeatherDisplay:10.37,2013-03-26 04:02:00,
2013-03-26 00:07:00,35.3,26.8,29.66,NW,305,0.0,0.0,71,0.00,OVC,,0.00,0.0,WeatherDisplay:10.37,2013-03-26 04:07:00,
2013-03-26 00:12:00,35.3,26.8,29.66,NW,305,0.0,0.0,71,0.00,OVC,,0.00,0.0,WeatherDisplay:10.37,2013-03-26 04:12:00,
2013-03-26 00:17:00,35.2,26.7,29.66,NW,305,0.0,0.0,71,0.00,OVC,,0.00,0.0,WeatherDisplay:10.37,2013-03-26 04:17:00,
2013-03-26 00:22:00,35.2,26.7,29.66,NW,305,2.3,2.3,71,0.00,OVC,,0.00,0.0,WeatherDisplay:10.37,2013-03-26 04:22:00,
2013-03-26 00:27:00,35.0,26.9,29.66,NW,305,0.0,0.0,72,0.00,OVC,,0.00,0.0,WeatherDisplay:10.37,2013-03-26 04:27:00,
2013-03-26 00:32:00,34.9,26.8,29.66,NW,305,0.0,0.0,72,0.00,OVC,,0.00,0.0,WeatherDisplay:10.37,2013-03-26 04:32:00,
2013-03-26 00:37:00,34.7,26.9,29.66,NW,305,0.0,0.0,73,0.00,OVC,,0.00,0.0,WeatherDisplay:10.37,2013-03-26 04:37:00,
2013-03-26 00:42:00,34.6,27.2,29.66,NW,305,0.0,0.0,74,0.00,OVC,,0.00,0.0,WeatherDisplay:10.37,2013-03-26 04:42:00,
2013-03-26 00:47:00,34.4,27.0,29.66,NW,305,0.0,0.0,74,0.00,OVC,,0.00,0.0,WeatherDisplay:10.37,2013-03-26 04:47:00,
2013-03-26 00:52:00,34.4,27.0,29.66,NW,305,3.0,3.0,74,0.00,OVC,,0.00,0.0,WeatherDisplay:10.37,2013-03-26 04:52:00,
2013-03-26 00:57:00,34.3,27.2,29.67,NW,304,1.0,1.0,75,0.00,OVC,,0.00,0.0,WeatherDisplay:10.37,2013-03-26 04:57:00,
2013-03-26 01:02:00,34.1,26.7,29.67,NW,305,4.0,4.0,74,0.00,OVC,,0.00,0.0,WeatherDisplay:10.37,2013-03-26 05:02:00,
2013-03-26 01:07:00,34.1,26.7,29.67,WNW,295,3.5,3.5,74,0.00,OVC,,0.00,0.0,WeatherDisplay:10.37,2013-03-26 05:07:00,
2013-03-26 01:12:00,34.1,26.7,29.67,WNW,295,2.3,2.3,74,0.00,OVC,,0.00,0.0,WeatherDisplay:10.37,2013-03-26 05:12:00,
2013-03-26 01:17:00,34.1,26.7,29.67,WNW,295,1.2,0.0,74,0.00,OVC,,0.00,0.0,WeatherDisplay:10.37,2013-03-26 05:17:00,
2013-03-26 01:22:00,34.1,27.0,29.67,WNW,295,1.2,0.0,75,0.00,OVC,,0.00,0.0,WeatherDisplay:10.37,2013-03-26 05:22:00,
2013-03-26 01:27:00,34.0,27.2,29.67,WNW,295,1.2,0.0,76,0.00,OVC,,0.00,0.0,WeatherDisplay:10.37,2013-03-26 05:27:00,
2013-03-26 01:32:00,33.8,27.0,29.67,WNW,294,3.0,3.0,76,0.00,OVC,,0.00,0.0,WeatherDisplay:10.37,2013-03-26 05:32:00,
2013-03-26 01:37:00,33.7,26.9,29.67,WNW,294,3.5,3.5,76,0.00,OVC,,0.00,0.0,WeatherDisplay:10.37,2013-03-26 05:37:00,
2013-03-26 01:42:00,33.7,26.9,29.67,WNW,294,0.0,0.0,76,0.00,OVC,,0.00,0.0,WeatherDisplay:10.37,2013-03-26 05:42:00,
2013-03-26 01:47:00,33.5,27.1,29.67,WNW,294,0.0,0.0,77,0.00,OVC,,0.00,0.0,WeatherDisplay:10.37,2013-03-26 05:47:00,
2013-03-26 01:52:00,33.5,27.1,29.67,WNW,294,2.3,2.3,77,0.00,OVC,,0.00,0.0,WeatherDisplay:10.37,2013-03-26 05:52:00,
2013-03-26 01:57:00,33.5,26.7,29.68,WNW,294,2.3,2.3,76,0.00,OVC,,0.00,0.0,WeatherDisplay:10.37,2013-03-26 05:57:00,
2013-03-26 02:02:00,33.7,26.9,29.68,WNW,293,3.5,3.5,76,0.00,OVC,,0.00,0.0,WeatherDisplay:10.37,2013-03-26 06:02:00,
2013-03-26 02:07:00,33.7,27.3,29.68,WSW,255,2.0,2.0,77,0.00,OVC,,0.00,0.0,WeatherDisplay:10.37,2013-03-26 06:07:00,
2013-03-26 02:12:00,33.5,27.1,29.68,SSW,213,4.0,4.0,77,0.00,OVC,,0.00,0.0,WeatherDisplay:10.37,2013-03-26 06:12:00,
2013-03-26 02:17:00,33.5,27.4,29.68,SW,215,5.0,5.0,78,0.00,OVC,,0.00,0.0,WeatherDisplay:10.37,2013-03-26 06:17:00,
2013-03-26 02:22:00,33.4,27.0,29.68,SW,220,3.0,3.0,77,0.00,OVC,,0.00,0.0,WeatherDisplay:10.37,2013-03-26 06:22:00,
2013-03-26 02:27:00,33.5,26.7,29.68,SW,229,3.5,3.5,76,0.00,OVC,,0.00,0.0,WeatherDisplay:10.37,2013-03-26 06:27:00,
2013-03-26 02:32:00,33.7,26.9,29.68,SW,231,4.0,4.0,76,0.00,OVC,,0.00,0.0,WeatherDisplay:10.37,2013-03-26 06:32:00,
2013-03-26 02:37:00,33.8,27.0,29.68,SW,229,0.0,0.0,76,0.00,OVC,,0.00,0.0,WeatherDisplay:10.37,2013-03-26 06:37:00,
2013-03-26 02:43:00,34.0,27.2,29.68,SW,229,1.2,1.2,76,0.00,OVC,,0.00,0.0,WeatherDisplay:10.37,2013-03-26 06:43:00,
2013-03-26 02:48:00,33.8,27.0,29.68,SW,225,1.0,0.0,76,0.00,OVC,,0.00,0.0,WeatherDisplay:10.37,2013-03-26 06:48:00,
2013-03-26 02:53:00,33.7,26.9,29.68,SW,217,3.0,3.0,76,0.00,OVC,,0.00,0.0,WeatherDisplay:10.37,2013-03-26 06:53:00,
2013-03-26 02:58:00,33.7,26.9,29.67,SW,218,3.0,3.0,76,0.00,OVC,,0.00,0.0,WeatherDisplay:10.37,2013-03-26 06:58:00,
2013-03-26 03:03:00,33.8,26.7,29.67,SW,219,2.3,2.3,75,0.00,OVC,,0.00,0.0,WeatherDisplay:10.37,2013-03-26 07:03:00,
2013-03-26 03:08:00,33.8,26.4,29.67,West,274,4.0,4.0,74,0.00,OVC,,0.00,0.0,WeatherDisplay:10.37,2013-03-26 07:08:00,
2013-03-26 03:13:00,34.0,26.6,29.68,WSW,244,3.5,0.0,74,0.00,OVC,,0.00,0.0,WeatherDisplay:10.37,2013-03-26 07:13:00,
2013-03-26 03:18:00,34.0,26.6,29.68,WSW,249,3.5,3.5,74,0.00,OVC,,0.00,0.0,WeatherDisplay:10.37,2013-03-26 07:18:00,
2013-03-26 03:23:00,33.8,26.4,29.68,WSW,248,3.0,3.0,74,0.00,OVC,,0.00,0.0,WeatherDisplay:10.37,2013-03-26 07:23:00,
2013-03-26 03:28:00,33.8,26.7,29.68,WSW,241,1.2,1.2,75,0.00,OVC,,0.00,0.0,WeatherDisplay:10.37,2013-03-26 07:28:00,
2013-03-26 03:33:00,33.7,26.6,29.68,WSW,246,3.5,3.5,75,0.00,OVC,,0.00,0.0,WeatherDisplay:10.37,2013-03-26 07:33:00,
2013-03-26 03:38:00,33.7,26.6,29.68,WSW,237,2.3,2.3,75,0.00,OVC,,0.00,0.0,WeatherDisplay:10.37,2013-03-26 07:38:00,
2013-03-26 03:43:00,33.7,26.3,29.68,WSW,242,3.5,3.5,74,0.00,OVC,,0.00,0.0,WeatherDisplay:10.37,2013-03-26 07:43:00,
2013-03-26 03:48:00,33.8,26.4,29.68,WSW,244,2.3,2.3,74,0.00,OVC,,0.00,0.0,WeatherDisplay:10.37,2013-03-26 07:48:00,
2013-03-26 03:53:00,33.8,26.4,29.68,SW,231,5.0,5.0,74,0.00,OVC,,0.00,0.0,WeatherDisplay:10.37,2013-03-26 07:53:00,
2013-03-26 03:58:00,33.8,26.1,29.68,SW,234,3.5,3.5,73,0.00,OVC,,0.00,0.0,WeatherDisplay:10.37,2013-03-26 07:58:00,
2013-03-26 04:03:00,33.8,26.4,29.68,WSW,241,3.5,3.5,74,0.00,OVC,,0.00,0.0,WeatherDisplay:10.37,2013-03-26 08:03:00,
2013-03-26 04:08:00,33.8,26.1,29.68,WSW,242,3.5,3.5,73,0.00,OVC,,0.00,0.0,WeatherDisplay:10.37,2013-03-26 08:08:00,
2013-03-26 04:13:00,33.8,26.1,29.68,WSW,239,3.5,3.5,73,0.00,OVC,,0.00,0.0,WeatherDisplay:10.37,2013-03-26 08:13:00,
2013-03-26 04:18:00,33.8,26.4,29.68,SW,227,3.5,3.5,74,0.00,OVC,,0.00,0.0,WeatherDisplay:10.37,2013-03-26 08:18:00,
2013-03-26 04:23:00,33.7,26.6,29.68,SW,236,3.5,3.5,75,0.00,OVC,,0.00,0.0,WeatherDisplay:10.37,2013-03-26 08:23:00,
2013-03-26 04:28:00,33.5,26.7,29.68,SW,235,3.5,3.5,76,0.00,OVC,,0.00,0.0,WeatherDisplay:10.37,2013-03-26 08:28:00,
2013-03-26 04:33:00,33.5,26.4,29.68,SW,235,3.5,3.5,75,0.00,OVC,,0.00,0.0,WeatherDisplay:10.37,2013-03-26 08:33:00,
2013-03-26 04:38:00,33.5,26.4,29.68,SW,222,4.0,4.0,75,0.00,OVC,,0.00,0.0,WeatherDisplay:10.37,2013-03-26 08:38:00,
2013-03-26 04:43:00,33.5,26.4,29.69,WSW,238,3.5,3.5,75,0.00,OVC,,0.00,0.0,WeatherDisplay:10.37,2013-03-26 08:43:00,
2013-03-26 04:48:00,33.5,26.4,29.69,WSW,247,3.5,3.5,75,0.00,OVC,,0.00,0.0,WeatherDisplay:10.37,2013-03-26 08:48:00,
2013-03-26 04:53:00,33.4,26.3,29.69,SW,236,3.5,3.5,75,0.00,OVC,,0.00,0.0,WeatherDisplay:10.37,2013-03-26 08:53:00,
2013-03-26 04:58:00,33.4,26.3,29.69,SW,233,4.6,4.6,75,0.00,OVC,,0.00,0.0,WeatherDisplay:10.37,2013-03-26 08:58:00,
2013-03-26 05:03:00,33.4,26.6,29.69,SW,232,2.3,2.3,76,0.00,OVC,,0.00,0.0,WeatherDisplay:10.37,2013-03-26 09:03:00,
2013-03-26 05:08:00,33.2,26.5,29.69,WSW,239,6.0,6.0,76,0.00,OVC,,0.00,0.0,WeatherDisplay:10.37,2013-03-26 09:08:00,
2013-03-26 05:13:00,33.2,26.5,29.70,SSW,200,4.0,4.0,76,0.00,OVC,,0.00,0.0,WeatherDisplay:10.37,2013-03-26 09:13:00,
2013-03-26 05:18:00,33.2,26.5,29.70,SW,231,6.9,6.9,76,0.00,OVC,,0.00,0.0,WeatherDisplay:10.37,2013-03-26 09:18:00,
2013-03-26 05:23:00,33.2,26.5,29.70,WSW,249,4.0,4.0,76,0.00,OVC,,0.00,0.0,WeatherDisplay:10.37,2013-03-26 09:23:00,
2013-03-26 05:28:00,33.2,26.5,29.71,SW,234,3.0,3.0,76,0.00,OVC,,0.00,0.0,WeatherDisplay:10.37,2013-03-26 09:28:00,
2013-03-26 05:33:00,33.2,26.5,29.71,SW,217,3.5,3.5,76,0.00,OVC,,0.00,0.0,WeatherDisplay:10.37,2013-03-26 09:33:00,
2013-03-26 05:38:00,33.2,26.5,29.71,SW,229,3.5,3.5,76,0.00,OVC,,0.00,0.0,WeatherDisplay:10.37,2013-03-26 09:38:00,
2013-03-26 05:43:00,33.1,26.7,29.71,WSW,246,5.0,5.0,77,0.00,OVC,,0.00,0.0,WeatherDisplay:10.37,2013-03-26 09:43:00,
2013-03-26 05:48:00,33.1,26.7,29.71,SW,227,3.5,3.5,77,0.00,OVC,,0.00,0.0,WeatherDisplay:10.37,2013-03-26 09:48:00,
2013-03-26 05:53:00,33.1,26.7,29.71,WSW,246,5.0,5.0,77,0.00,OVC,,0.00,0.0,WeatherDisplay:10.37,2013-03-26 09:53:00,
2013-03-26 05:58:00,33.1,26.7,29.71,WSW,239,3.5,3.5,77,0.00,OVC,,0.00,0.0,WeatherDisplay:10.37,2013-03-26 09:58:00,
2013-03-26 06:03:00,33.1,26.7,29.71,SW,229,6.0,6.0,77,0.00,OVC,,0.00,0.0,WeatherDisplay:10.37,2013-03-26 10:03:00,
2013-03-26 06:08:00,33.1,26.7,29.71,SW,229,3.0,3.0,77,0.00,OVC,,0.00,0.0,WeatherDisplay:10.37,2013-03-26 10:08:00,
2013-03-26 06:13:00,33.1,27.0,29.72,SW,229,2.0,0.0,78,0.00,OVC,,0.00,0.0,WeatherDisplay:10.37,2013-03-26 10:13:00,
2013-03-26 06:18:00,32.9,26.8,29.72,SW,227,2.3,2.3,78,0.00,OVC,,0.00,0.0,WeatherDisplay:10.37,2013-03-26 10:18:00,
2013-03-26 06:23:00,32.9,26.8,29.72,WSW,244,3.5,3.5,78,0.00,OVC,,0.00,0.0,WeatherDisplay:10.37,2013-03-26 10:23:00,
2013-03-26 06:28:00,32.9,26.8,29.72,SW,217,3.0,3.0,78,0.00,OVC,,0.00,0.0,WeatherDisplay:10.37,2013-03-26 10:28:00,
2013-03-26 06:33:00,32.9,26.8,29.72,SW,227,5.8,5.8,78,0.00,OVC,,0.00,0.0,WeatherDisplay:10.37,2013-03-26 10:33:00,
2013-03-26 06:38:00,32.9,26.8,29.72,SW,232,4.0,4.0,78,0.00,OVC,,0.00,0.0,WeatherDisplay:10.37,2013-03-26 10:38:00,
2013-03-26 06:44:00,32.9,26.8,29.73,SW,223,4.0,4.0,78,0.00,OVC,,0.00,0.0,WeatherDisplay:10.37,2013-03-26 10:44:00,
2013-03-26 06:49:00,32.8,26.7,29.73,SSW,213,6.0,6.0,78,0.00,OVC,,0.00,0.0,WeatherDisplay:10.37,2013-03-26 10:49:00,
2013-03-26 06:54:00,32.8,26.7,29.73,West,259,5.8,5.8,78,0.00,OVC,,0.00,0.0,WeatherDisplay:10.37,2013-03-26 10:54:00,
2013-03-26 06:59:00,32.8,26.7,29.74,West,260,4.6,4.6,78,0.00,OVC,,0.00,0.0,WeatherDisplay:10.37,2013-03-26 10:59:00,
2013-03-26 07:04:00,32.8,26.7,29.74,WSW,237,7.0,7.0,78,0.00,OVC,,0.00,0.0,WeatherDisplay:10.37,2013-03-26 11:04:00,
2013-03-26 07:09:00,32.8,26.7,29.74,WSW,255,6.0,6.0,78,0.00,OVC,,0.00,0.0,WeatherDisplay:10.37,2013-03-26 11:09:00,
2013-03-26 07:14:00,32.8,26.7,29.74,West,272,3.5,3.5,78,0.00,OVC,,0.00,7.0,WeatherDisplay:10.37,2013-03-26 11:14:00,
2013-03-26 07:19:00,32.8,26.7,29.74,WSW,256,5.0,5.0,78,0.00,OVC,,0.00,11.0,WeatherDisplay:10.37,2013-03-26 11:19:00,
2013-03-26 07:24:00,32.8,26.7,29.74,West,272,7.0,7.0,78,0.00,OVC,,0.00,12.0,WeatherDisplay:10.37,2013-03-26 11:24:00,
2013-03-26 07:29:00,32.9,26.8,29.75,WSW,241,3.5,3.5,78,0.00,OVC,,0.00,19.0,WeatherDisplay:10.37,2013-03-26 11:29:00,
2013-03-26 07:34:00,32.9,26.8,29.75,SSW,208,6.0,6.0,78,0.00,OVC,,0.00,26.0,WeatherDisplay:10.37,2013-03-26 11:34:00,
2013-03-26 07:39:00,32.9,26.8,29.75,WSW,241,5.0,5.0,78,0.00,OVC,,0.00,26.0,WeatherDisplay:10.37,2013-03-26 11:39:00,
2013-03-26 07:44:00,33.1,27.3,29.76,SW,220,7.0,7.0,79,0.00,OVC,,0.00,30.0,WeatherDisplay:10.37,2013-03-26 11:44:00,
2013-03-26 07:49:00,33.1,27.3,29.76,SW,220,6.0,6.0,79,0.00,OVC,,0.00,30.0,WeatherDisplay:10.37,2013-03-26 11:49:00,
2013-03-26 07:54:00,33.1,27.0,29.76,SW,215,5.8,5.8,78,0.00,OVC,,0.00,30.0,WeatherDisplay:10.37,2013-03-26 11:54:00,
2013-03-26 07:59:00,33.2,27.1,29.76,WSW,246,3.5,3.5,78,0.00,OVC,,0.00,32.0,WeatherDisplay:10.37,2013-03-26 11:59:00,
2013-03-26 08:04:00,33.2,27.1,29.76,SW,230,6.0,6.0,78,0.00,OVC,,0.00,33.0,WeatherDisplay:10.37,2013-03-26 12:04:00,
2013-03-26 08:09:00,33.4,27.3,29.76,SW,233,5.0,5.0,78,0.00,OVC,,0.00,37.0,WeatherDisplay:10.37,2013-03-26 12:09:00,
2013-03-26 08:14:00,33.5,27.4,29.77,West,261,5.0,5.0,78,0.00,OVC,,0.00,40.0,WeatherDisplay:10.37,2013-03-26 12:14:00,
2013-03-26 08:19:00,33.5,27.4,29.77,SW,225,5.0,5.0,78,0.00,OVC,,0.00,47.0,WeatherDisplay:10.37,2013-03-26 12:19:00,
2013-03-26 08:24:00,33.7,27.6,29.77,West,259,5.0,5.0,78,0.00,OVC,,0.00,53.0,WeatherDisplay:10.37,2013-03-26 12:24:00,
2013-03-26 08:29:00,33.8,27.7,29.78,West,269,5.0,5.0,78,0.00,OVC,,0.00,58.0,WeatherDisplay:10.37,2013-03-26 12:29:00,
2013-03-26 08:34:00,33.8,27.4,29.78,WNW,298,4.0,4.0,77,0.00,OVC,,0.00,60.0,WeatherDisplay:10.37,2013-03-26 12:34:00,
2013-03-26 08:39:00,34.0,27.5,29.78,WNW,299,4.0,4.0,77,0.00,OVC,,0.00,69.0,WeatherDisplay:10.37,2013-03-26 12:39:00,
2013-03-26 08:44:00,34.1,27.6,29.78,West,274,5.0,5.0,77,0.00,OVC,,0.00,98.0,WeatherDisplay:10.37,2013-03-26 12:44:00,
2013-03-26 08:49:00,34.3,27.8,29.78,West,279,5.0,5.0,77,0.00,OVC,,0.00,121.0,WeatherDisplay:10.37,2013-03-26 12:49:00,
2013-03-26 08:54:00,34.6,28.1,29.78,WSW,247,4.0,4.0,77,0.00,OVC,,0.00,113.0,WeatherDisplay:10.37,2013-03-26 12:54:00,
2013-03-26 08:59:00,34.7,27.9,29.79,West,263,5.8,5.8,76,0.00,OVC,,0.00,83.0,WeatherDisplay:10.37,2013-03-26 12:59:00,
2013-03-26 09:04:00,34.7,27.9,29.79,West,259,3.0,3.0,76,0.00,OVC,,0.00,74.0,WeatherDisplay:10.37,2013-03-26 13:04:00,
2013-03-26 09:09:00,34.9,28.1,29.79,WNW,295,2.3,2.3,76,0.00,OVC,,0.00,107.0,WeatherDisplay:10.37,2013-03-26 13:09:00,
2013-03-26 09:14:00,34.9,28.1,29.79,West,264,5.0,5.0,76,0.00,OVC,,0.00,158.0,WeatherDisplay:10.37,2013-03-26 13:14:00,
2013-03-26 09:19:00,35.0,28.5,29.79,WNW,293,5.8,5.8,77,0.00,OVC,,0.00,135.0,WeatherDisplay:10.37,2013-03-26 13:19:00,
2013-03-26 09:24:00,35.0,28.5,29.79,WNW,291,1.2,1.2,77,0.00,OVC,,0.00,116.0,WeatherDisplay:10.37,2013-03-26 13:24:00,
2013-03-26 09:29:00,35.2,29.0,29.79,West,265,2.3,2.3,78,0.00,OVC,,0.00,128.0,WeatherDisplay:10.37,2013-03-26 13:29:00,
2013-03-26 09:34:00,35.5,29.0,29.79,WSW,242,4.0,4.0,77,0.00,OVC,,0.00,153.0,WeatherDisplay:10.37,2013-03-26 13:34:00,
2013-03-26 09:39:00,35.6,29.1,29.79,West,277,3.0,3.0,77,0.00,OVC,,0.00,171.0,WeatherDisplay:10.37,2013-03-26 13:39:00,
2013-03-26 09:44:00,35.9,29.4,29.79,WSW,238,5.0,5.0,77,0.00,OVC,,0.00,185.0,WeatherDisplay:10.37,2013-03-26 13:44:00,
2013-03-26 09:49:00,36.2,29.4,29.79,WSW,246,6.0,6.0,76,0.00,OVC,,0.00,250.0,WeatherDisplay:10.37,2013-03-26 13:49:00,
2013-03-26 09:54:00,36.6,29.4,29.79,SW,232,3.5,3.5,75,0.00,OVC,,0.00,211.0,WeatherDisplay:10.37,2013-03-26 13:54:00,
2013-03-26 09:59:00,36.6,29.1,29.79,NW,312,6.9,6.9,74,0.00,OVC,,0.00,216.0,WeatherDisplay:10.37,2013-03-26 13:59:00,
2013-03-26 10:04:00,36.8,29.0,29.79,West,272,2.3,2.3,73,0.00,OVC,,0.00,267.0,WeatherDisplay:10.37,2013-03-26 14:04:00,
2013-03-26 10:09:00,37.2,29.3,29.79,West,270,6.0,6.0,73,0.00,OVC,,0.00,381.0,WeatherDisplay:10.37,2013-03-26 14:09:00,
2013-03-26 10:14:00,37.6,29.4,29.79,West,281,4.6,4.6,72,0.00,-SN,,0.00,420.0,WeatherDisplay:10.37,2013-03-26 14:14:00,
2013-03-26 10:19:00,38.0,29.1,29.79,WSW,241,6.9,6.9,70,0.00,-SN,,0.00,390.0,WeatherDisplay:10.37,2013-03-26 14:19:00,
2013-03-26 10:24:00,38.6,28.6,29.79,WNW,286,5.0,5.0,67,0.00,-SN,,0.00,411.0,WeatherDisplay:10.37,2013-03-26 14:24:00,
2013-03-26 10:29:00,39.6,29.5,29.79,WSW,248,4.6,4.6,67,0.00,-SN,,0.00,526.0,WeatherDisplay:10.37,2013-03-26 14:29:00,
2013-03-26 10:34:00,39.9,28.7,29.79,SW,236,5.0,5.0,64,0.00,-SN,,0.00,520.0,WeatherDisplay:10.37,2013-03-26 14:34:00,
2013-03-26 10:39:00,39.9,28.3,29.79,WNW,292,5.0,5.0,63,0.00,-SN,,0.00,385.0,WeatherDisplay:10.37,2013-03-26 14:39:00,
2013-03-26 10:44:00,39.8,28.2,29.79,SW,235,9.2,9.2,63,0.00,-SN,,0.00,408.0,WeatherDisplay:10.37,2013-03-26 14:44:00,
2013-03-26 10:49:00,40.1,28.5,29.79,West,278,6.0,6.0,63,0.00,-SN,,0.00,459.0,WeatherDisplay:10.37,2013-03-26 14:49:00,
2013-03-26 10:54:00,40.5,28.1,29.79,WNW,296,10.4,10.4,61,0.00,-SN,,0.00,353.0,WeatherDisplay:10.37,2013-03-26 14:54:00,
2013-03-26 10:59:00,41.1,28.7,29.80,WNW,283,7.0,7.0,61,0.00,-SN,,0.00,729.0,WeatherDisplay:10.37,2013-03-26 14:59:00,
2013-03-26 11:04:00,41.6,29.1,29.80,WNW,301,7.0,7.0,61,0.00,-SN,,0.00,715.0,WeatherDisplay:10.37,2013-03-26 15:04:00,
2013-03-26 11:09:00,42.3,29.0,29.80,West,279,10.4,10.4,59,0.00,-SN,,0.00,726.0,WeatherDisplay:10.37,2013-03-26 15:09:00,
2013-03-26 11:14:00,42.8,29.0,29.80,West,275,7.0,7.0,58,0.00,SCT,,0.00,749.0,WeatherDisplay:10.37,2013-03-26 15:14:00,
2013-03-26 11:19:00,43.5,28.8,29.80,NW,307,10.4,10.4,56,0.00,SCT,,0.00,791.0,WeatherDisplay:10.37,2013-03-26 15:19:00,
2013-03-26 11:24:00,43.5,28.4,29.80,WNW,288,12.0,12.0,55,0.00,SCT,,0.00,759.0,WeatherDisplay:10.37,2013-03-26 15:24:00,
2013-03-26 11:29:00,43.2,28.1,29.80,South,187,11.5,11.5,55,0.00,SCT,,0.00,761.0,WeatherDisplay:10.37,2013-03-26 15:29:00,
2013-03-26 11:35:00,43.2,28.5,29.80,WNW,282,6.0,6.0,56,0.00,SCT,,0.00,773.0,WeatherDisplay:10.37,2013-03-26 15:35:00,
2013-03-26 11:40:00,43.5,28.8,29.80,WSW,253,6.0,6.0,56,0.00,SCT,,0.00,828.0,WeatherDisplay:10.37,2013-03-26 15:40:00,
2013-03-26 11:45:00,43.8,29.5,29.80,West,270,11.5,11.5,57,0.00,SCT,,0.00,795.0,WeatherDisplay:10.37,2013-03-26 15:45:00,
2013-03-26 11:50:00,43.9,29.2,29.80,NW,308,9.0,9.0,56,0.00,SCT,,0.00,835.0,WeatherDisplay:10.37,2013-03-26 15:50:00,
2013-03-26 11:55:00,44.1,28.0,29.80,West,262,11.5,11.5,53,0.00,SCT,,0.00,847.0,WeatherDisplay:10.37,2013-03-26 15:55:00,
2013-03-26 12:00:00,44.1,28.5,29.80,WNW,285,14.0,14.0,54,0.00,SCT,,0.00,840.0,WeatherDisplay:10.37,2013-03-26 16:00:00,
2013-03-26 12:05:00,44.2,28.6,29.80,WSW,238,9.0,9.0,54,0.00,SCT,,0.00,896.0,WeatherDisplay:10.37,2013-03-26 16:05:00,
2013-03-26 12:10:00,44.6,29.0,29.80,WNW,289,11.5,11.5,54,0.00,SCT,,0.00,830.0,WeatherDisplay:10.37,2013-03-26 16:10:00,
2013-03-26 12:15:00,44.8,29.2,29.80,WSW,249,11.5,11.5,54,0.00,CLR,,0.00,853.0,WeatherDisplay:10.37,2013-03-26 16:15:00,
2013-03-26 12:20:00,45.1,29.0,29.80,WNW,298,6.0,6.0,53,0.00,CLR,,0.00,851.0,WeatherDisplay:10.37,2013-03-26 16:20:00,
2013-03-26 12:25:00,45.4,29.7,29.80,WNW,293,10.4,10.4,54,0.00,CLR,,0.00,858.0,WeatherDisplay:10.37,2013-03-26 16:25:00,
2013-03-26 12:30:00,45.5,28.9,29.79,SW,220,4.0,4.0,52,0.00,CLR,,0.00,868.0,WeatherDisplay:10.37,2013-03-26 16:30:00,
2013-03-26 12:35:00,45.2,29.5,29.79,West,280,7.0,7.0,54,0.00,CLR,,0.00,912.0,WeatherDisplay:10.37,2013-03-26 16:35:00,
2013-03-26 12:40:00,45.8,29.6,29.79,West,278,6.9,6.9,53,0.00,CLR,,0.00,991.0,WeatherDisplay:10.37,2013-03-26 16:40:00,
2013-03-26 12:45:00,45.7,28.1,29.79,West,262,3.0,12.0,50,0.00,CLR,,0.00,925.0,WeatherDisplay:10.37,2013-03-26 16:45:00,
2013-03-26 12:50:00,45.8,30.1,29.79,NW,309,11.5,11.5,54,0.00,CLR,,0.00,884.0,WeatherDisplay:10.37,2013-03-26 16:50:00,
2013-03-26 12:55:00,46.2,29.5,29.79,WNW,294,13.0,13.0,52,0.00,CLR,,0.00,884.0,WeatherDisplay:10.37,2013-03-26 16:55:00,
2013-03-26 13:00:00,46.2,29.1,29.79,WSW,249,16.0,16.0,51,0.00,CLR,,0.00,909.0,WeatherDisplay:10.37,2013-03-26 17:00:00,
2013-03-26 13:05:00,46.1,29.0,29.79,West,261,11.5,11.5,51,0.00,CLR,,0.00,939.0,WeatherDisplay:10.37,2013-03-26 17:05:00,
2013-03-26 13:10:00,46.4,29.7,29.79,SSW,206,3.5,3.5,52,0.00,CLR,,0.00,995.0,WeatherDisplay:10.37,2013-03-26 17:10:00,
2013-03-26 13:15:00,46.7,30.0,29.79,West,263,9.0,20.0,52,0.00,SCT,,0.00,939.0,WeatherDisplay:10.37,2013-03-26 17:15:00,
2013-03-26 13:20:00,46.5,28.3,29.79,WSW,251,15.0,15.0,49,0.00,SCT,,0.00,891.0,WeatherDisplay:10.37,2013-03-26 17:20:00,
2013-03-26 13:25:00,46.7,29.0,29.79,WNW,293,11.5,11.5,50,0.00,SCT,,0.00,882.0,WeatherDisplay:10.37,2013-03-26 17:25:00,
2013-03-26 13:30:00,46.8,30.1,29.79,WSW,255,13.8,13.8,52,0.00,SCT,,0.00,877.0,WeatherDisplay:10.37,2013-03-26 17:30:00,
2013-03-26 13:35:00,47.0,29.8,29.79,WNW,286,13.0,13.0,51,0.00,SCT,,0.00,898.0,WeatherDisplay:10.37,2013-03-26 17:35:00,
2013-03-26 13:40:00,46.8,29.6,29.79,NNW,343,12.0,12.0,51,0.00,SCT,,0.00,893.0,WeatherDisplay:10.37,2013-03-26 17:40:00,
2013-03-26 13:45:00,46.7,29.5,29.80,West,274,7.0,16.0,51,0.00,SCT,,0.00,896.0,WeatherDisplay:10.37,2013-03-26 17:45:00,
2013-03-26 13:50:00,47.0,30.3,29.80,West,279,16.0,16.0,52,0.00,SCT,,0.00,928.0,WeatherDisplay:10.37,2013-03-26 17:50:00,
2013-03-26 13:55:00,47.4,29.2,29.80,West,267,15.0,15.0,49,0.00,SCT,,0.00,1013.0,WeatherDisplay:10.37,2013-03-26 17:55:00,
2013-03-26 14:00:00,47.4,29.2,29.80,West,281,14.0,14.0,49,0.00,SCT,,0.00,958.0,WeatherDisplay:10.37,2013-03-26 18:00:00,
2013-03-26 14:05:00,47.6,29.9,29.80,West,262,18.4,18.4,50,0.00,SCT,,0.00,1058.0,WeatherDisplay:10.37,2013-03-26 18:05:00,
2013-03-26 14:10:00,47.6,28.3,29.80,WNW,286,5.8,5.8,47,0.00,SCT,,0.00,357.0,WeatherDisplay:10.37,2013-03-26 18:10:00,
2013-03-26 14:15:00,47.6,29.4,29.80,WNW,284,9.2,9.2,49,0.00,SCT,,0.00,248.0,WeatherDisplay:10.37,2013-03-26 18:15:00,
2013-03-26 14:20:00,47.0,28.3,29.80,NNW,327,15.0,15.0,48,0.00,SCT,,0.00,264.0,WeatherDisplay:10.37,2013-03-26 18:20:00,
2013-03-26 14:25:00,45.8,27.2,29.80,WSW,240,11.5,11.5,48,0.00,SCT,,0.00,304.0,WeatherDisplay:10.37,2013-03-26 18:25:00,
2013-03-26 14:30:00,45.4,27.3,29.80,West,275,10.4,10.4,49,0.00,SCT,,0.00,267.0,WeatherDisplay:10.37,2013-03-26 18:30:00,
2013-03-26 14:35:00,45.1,27.1,29.80,NW,322,10.4,10.4,49,0.00,SCT,,0.00,227.0,WeatherDisplay:10.37,2013-03-26 18:35:00,
2013-03-26 14:40:00,44.8,26.8,29.80,NW,311,13.8,13.8,49,0.00,SCT,,0.00,327.0,WeatherDisplay:10.37,2013-03-26 18:40:00,
2013-03-26 14:45:00,44.6,26.1,29.80,NW,310,5.8,5.8,48,0.00,SCT,,0.00,355.0,WeatherDisplay:10.37,2013-03-26 18:45:00,
2013-03-26 14:50:00,45.2,28.1,29.80,West,273,6.0,6.0,51,0.00,SCT,,0.00,387.0,WeatherDisplay:10.37,2013-03-26 18:50:00,
2013-03-26 14:55:00,45.7,27.6,29.80,WNW,291,10.4,10.4,49,0.00,SCT,,0.00,278.0,WeatherDisplay:10.37,2013-03-26 18:55:00,
2013-03-26 15:00:00,45.7,26.1,29.79,West,268,2.0,13.0,46,0.00,SCT,,0.00,292.0,WeatherDisplay:10.37,2013-03-26 19:00:00,
2013-03-26 15:05:00,45.7,26.1,29.79,West,261,6.9,6.9,46,0.00,SCT,,0.00,281.0,WeatherDisplay:10.37,2013-03-26 19:05:00,
2013-03-26 15:10:00,45.7,26.1,29.79,West,279,5.8,5.8,46,0.00,SCT,,0.00,251.0,WeatherDisplay:10.37,2013-03-26 19:10:00,
2013-03-26 15:15:00,45.7,25.0,29.80,WNW,293,4.0,4.0,44,0.00,SCT,,0.00,309.0,WeatherDisplay:10.37,2013-03-26 19:15:00,
2013-03-26 15:20:00,45.7,25.0,29.80,WNW,295,5.0,5.0,44,0.00,SCT,,0.00,388.0,WeatherDisplay:10.37,2013-03-26 19:20:00,
2013-03-26 15:25:00,46.0,25.8,29.80,NNW,337,6.0,6.0,45,0.00,SCT,,0.00,499.0,WeatherDisplay:10.37,2013-03-26 19:25:00,
2013-03-26 15:30:00,45.5,21.3,29.80,North,5,12.0,12.0,38,0.00,SCT,,0.00,297.0,WeatherDisplay:10.37,2013-03-26 19:30:00,
2013-03-26 15:35:00,45.2,21.1,29.80,NNW,348,10.4,10.4,38,0.00,SCT,,0.00,236.0,WeatherDisplay:10.37,2013-03-26 19:35:00,
2013-03-26 15:40:00,45.1,21.6,29.80,NW,320,5.8,5.8,39,0.00,SCT,,0.00,232.0,WeatherDisplay:10.37,2013-03-26 19:40:00,
2013-03-26 15:45:00,44.2,19.5,29.79,NNW,332,13.8,13.8,37,0.00,SCT,,0.00,234.0,WeatherDisplay:10.37,2013-03-26 19:45:00,
2013-03-26 15:50:00,44.5,21.6,29.79,NW,323,9.2,9.2,40,0.00,SCT,,0.00,251.0,WeatherDisplay:10.37,2013-03-26 19:50:00,
2013-03-26 15:55:00,45.4,20.6,29.79,NNW,330,12.0,12.0,37,0.00,SCT,,0.00,800.0,WeatherDisplay:10.37,2013-03-26 19:55:00,
2013-03-26 16:00:00,45.8,17.6,29.79,North,351,13.0,13.0,32,0.00,SCT,,0.00,258.0,WeatherDisplay:10.37,2013-03-26 20:00:00,
2013-03-26 16:05:00,45.5,19.4,29.79,NNW,329,8.1,8.1,35,0.00,CLR,,0.00,171.0,WeatherDisplay:10.37,2013-03-26 20:05:00,
2013-03-26 16:10:00,45.4,18.6,29.79,NNW,338,16.1,16.1,34,0.00,CLR,,0.00,686.0,WeatherDisplay:10.37,2013-03-26 20:10:00,
2013-03-26 16:15:00,45.8,19.0,29.80,NW,324,15.0,15.0,34,0.00,CLR,,0.00,657.0,WeatherDisplay:10.37,2013-03-26 20:15:00,
2013-03-26 16:20:00,46.2,17.2,29.80,North,3,13.8,13.8,31,0.00,CLR,,0.00,647.0,WeatherDisplay:10.37,2013-03-26 20:20:00,
2013-03-26 16:25:00,46.8,17.0,29.80,NNW,338,13.8,13.8,30,0.00,CLR,,0.00,656.0,WeatherDisplay:10.37,2013-03-26 20:25:00,
2013-03-26 16:30:00,47.0,19.3,29.80,NNW,343,15.0,15.0,33,0.00,CLR,,0.00,606.0,WeatherDisplay:10.37,2013-03-26 20:30:00,
2013-03-26 16:35:00,47.1,18.0,29.80,NNW,332,12.0,12.0,31,0.00,CLR,,0.00,559.0,WeatherDisplay:10.37,2013-03-26 20:35:00,
2013-03-26 16:40:00,47.3,19.6,29.80,North,351,11.5,11.5,33,0.00,CLR,,0.00,550.0,WeatherDisplay:10.37,2013-03-26 20:40:00,
2013-03-26 16:45:00,47.6,18.4,29.80,NW,320,11.5,11.5,31,0.00,CLR,,0.00,503.0,WeatherDisplay:10.37,2013-03-26 20:45:00,
2013-03-26 16:50:00,47.4,18.2,29.80,NNW,329,11.5,11.5,31,0.00,CLR,,0.00,557.0,WeatherDisplay:10.37,2013-03-26 20:50:00,
2013-03-26 16:55:00,46.7,19.1,29.80,NNW,336,13.0,13.0,33,0.00,CLR,,0.00,137.0,WeatherDisplay:10.37,2013-03-26 20:55:00,
2013-03-26 17:00:00,45.8,17.6,29.80,NW,322,16.1,16.1,32,0.00,CLR,,0.00,105.0,WeatherDisplay:10.37,2013-03-26 21:00:00,
2013-03-26 17:05:00,44.8,17.4,29.80,NNW,330,13.8,13.8,33,0.00,CLR,,0.00,81.0,WeatherDisplay:10.37,2013-03-26 21:05:00,
2013-03-26 17:10:00,44.5,18.5,29.80,NNW,345,9.2,9.2,35,0.00,CLR,,0.00,452.0,WeatherDisplay:10.37,2013-03-26 21:10:00,
2013-03-26 17:15:00,45.2,19.1,29.81,WNW,300,12.7,12.7,35,0.00,CLR,,0.00,429.0,WeatherDisplay:10.37,2013-03-26 21:15:00,
2013-03-26 17:20:00,45.8,16.8,29.81,NNW,327,11.5,11.5,31,0.00,CLR,,0.00,410.0,WeatherDisplay:10.37,2013-03-26 21:20:00,
2013-03-26 17:25:00,46.2,18.6,29.81,NW,308,14.0,14.0,33,0.00,CLR,,0.00,397.0,WeatherDisplay:10.37,2013-03-26 21:25:00,
2013-03-26 17:30:00,45.7,19.6,29.82,NNW,341,14.0,14.0,35,0.00,CLR,,0.00,100.0,WeatherDisplay:10.37,2013-03-26 21:30:00,
2013-03-26 17:35:00,44.6,18.6,29.82,NNW,338,12.0,12.0,35,0.00,CLR,,0.00,360.0,WeatherDisplay:10.37,2013-03-26 21:35:00,
2013-03-26 17:40:00,44.3,19.0,29.82,NNW,327,14.0,14.0,36,0.00,CLR,,0.00,70.0,WeatherDisplay:10.37,2013-03-26 21:40:00,
2013-03-26 17:45:00,43.9,17.3,29.82,NW,324,15.0,15.0,34,0.00,CLR,,0.00,63.0,WeatherDisplay:10.37,2013-03-26 21:45:00,
2013-03-26 17:50:00,43.5,17.6,29.82,NNW,336,16.1,16.1,35,0.00,CLR,,0.00,51.0,WeatherDisplay:10.37,2013-03-26 21:50:00,
2013-03-26 17:55:00,42.9,18.4,29.83,NNW,336,16.1,16.1,37,0.00,CLR,,0.00,46.0,WeatherDisplay:10.37,2013-03-26 21:55:00,
2013-03-26 18:00:00,42.5,18.0,29.83,NNW,342,14.0,14.0,37,0.00,CLR,,0.00,67.0,WeatherDisplay:10.37,2013-03-26 22:00:00,
2013-03-26 18:05:00,42.3,18.5,29.83,NNW,338,14.0,14.0,38,0.00,CLR,,0.00,62.0,WeatherDisplay:10.37,2013-03-26 22:05:00,
2013-03-26 18:10:00,42.1,19.5,29.83,North,351,11.0,11.0,40,0.00,CLR,,0.00,56.0,WeatherDisplay:10.37,2013-03-26 22:10:00,
2013-03-26 18:15:00,41.9,19.3,29.84,NNW,333,16.1,16.1,40,0.00,CLR,,0.00,46.0,WeatherDisplay:10.37,2013-03-26 22:15:00,
2013-03-26 18:20:00,41.6,19.0,29.84,North,355,12.7,12.7,40,0.00,CLR,,0.00,39.0,WeatherDisplay:10.37,2013-03-26 22:20:00,
2013-03-26 18:25:00,41.5,18.9,29.84,NNW,338,13.8,13.8,40,0.00,CLR,,0.00,35.0,WeatherDisplay:10.37,2013-03-26 22:25:00,
2013-03-26 18:30:00,41.2,19.2,29.84,NNW,342,14.0,14.0,41,0.00,CLR,,0.00,26.0,WeatherDisplay:10.37,2013-03-26 22:30:00,
2013-03-26 18:35:00,40.9,18.4,29.84,NNW,342,7.0,7.0,40,0.00,CLR,,0.00,25.0,WeatherDisplay:10.37,2013-03-26 22:35:00,
2013-03-26 18:40:00,40.6,18.7,29.85,NNW,343,8.0,8.0,41,0.00,CLR,,0.00,23.0,WeatherDisplay:10.37,2013-03-26 22:40:00,
2013-03-26 18:45:00,40.5,19.2,29.85,NNW,329,9.2,9.2,42,0.00,CLR,,0.00,21.0,WeatherDisplay:10.37,2013-03-26 22:45:00,
2013-03-26 18:50:00,40.2,18.9,29.85,NNW,335,7.0,7.0,42,0.00,CLR,,0.00,21.0,WeatherDisplay:10.37,2013-03-26 22:50:00,
2013-03-26 18:55:00,40.1,19.4,29.85,NNW,329,6.0,6.0,43,0.00,CLR,,0.00,18.0,WeatherDisplay:10.37,2013-03-26 22:55:00,
2013-03-26 19:00:00,39.9,19.2,29.85,NNW,348,3.5,3.5,43,0.00,CLR,,0.00,16.0,WeatherDisplay:10.37,2013-03-26 23:00:00,
2013-03-26 19:05:00,39.6,20.0,29.85,NNW,333,3.0,3.0,45,0.00,CLR,,0.00,11.0,WeatherDisplay:10.37,2013-03-26 23:05:00,
2013-03-26 19:10:00,39.3,18.6,29.86,NNW,327,8.1,8.1,43,0.00,CLR,,0.00,7.0,WeatherDisplay:10.37,2013-03-26 23:10:00,
2013-03-26 19:15:00,39.2,18.5,29.86,NNW,330,6.9,6.9,43,0.00,CLR,,0.00,5.0,WeatherDisplay:10.37,2013-03-26 23:15:00,
2013-03-26 19:20:00,39.2,18.5,29.86,NNW,330,6.0,6.0,43,0.00,CLR,,0.00,0.0,WeatherDisplay:10.37,2013-03-26 23:20:00,
2013-03-26 19:25:00,39.1,18.5,29.87,NNW,340,4.0,4.0,43,0.00,CLR,,0.00,0.0,WeatherDisplay:10.37,2013-03-26 23:25:00,
2013-03-26 19:30:00,38.9,20.4,29.87,NNW,331,4.0,4.0,47,0.00,CLR,,0.00,0.0,WeatherDisplay:10.37,2013-03-26 23:30:00,
2013-03-26 19:35:00,38.3,20.8,29.87,NNW,339,3.5,3.5,49,0.00,CLR,,0.00,0.0,WeatherDisplay:10.37,2013-03-26 23:35:00,
2013-03-26 19:40:00,37.8,21.3,29.87,NNW,339,0.0,0.0,51,0.00,CLR,,0.00,0.0,WeatherDisplay:10.37,2013-03-26 23:40:00,
2013-03-26 19:45:00,36.9,21.8,29.87,NNW,339,0.0,0.0,54,0.00,CLR,,0.00,0.0,WeatherDisplay:10.37,2013-03-26 23:45:00,
2013-03-26 19:50:00,36.0,21.8,29.87,NNW,339,1.2,0.0,56,0.00,CLR,,0.00,0.0,WeatherDisplay:10.37,2013-03-26 23:50:00,
2013-03-26 19:55:00,35.2,21.5,29.87,NNW,339,0.0,0.0,57,0.00,CLR,,0.00,0.0,WeatherDisplay:10.37,2013-03-26 23:55:00,
2013-03-26 20:00:00,34.6,21.7,29.87,NNW,339,0.0,0.0,59,0.00,CLR,,0.00,0.0,WeatherDisplay:10.37,2013-03-27 00:00:00,
2013-03-26 20:05:00,33.8,21.8,29.87,NNW,339,0.0,0.0,61,0.00,CLR,,0.00,0.0,WeatherDisplay:10.37,2013-03-27 00:05:00,
2013-03-26 20:10:00,33.4,22.5,29.88,NNW,339,1.2,0.0,64,0.00,CLR,,0.00,0.0,WeatherDisplay:10.37,2013-03-27 00:10:00,
2013-03-26 20:15:00,32.8,22.3,29.88,NNW,334,2.0,2.0,65,0.00,CLR,,0.00,0.0,WeatherDisplay:10.37,2013-03-27 00:15:00,
2013-03-26 20:20:00,32.2,22.1,29.88,NNW,334,3.5,3.5,66,0.00,CLR,,0.00,0.0,WeatherDisplay:10.37,2013-03-27 00:20:00,
2013-03-26 20:25:00,31.8,22.1,29.89,West,279,5.8,5.8,67,0.00,CLR,,0.00,0.0,WeatherDisplay:10.37,2013-03-27 00:25:00,
2013-03-26 20:30:00,31.8,21.4,29.89,WNW,284,4.0,4.0,65,0.00,CLR,,0.00,0.0,WeatherDisplay:10.37,2013-03-27 00:30:00,
2013-03-26 20:35:00,31.9,21.5,29.89,West,275,3.5,3.5,65,0.00,CLR,,0.00,0.0,WeatherDisplay:10.37,2013-03-27 00:35:00,
2013-03-26 20:40:00,32.2,21.7,29.89,West,270,4.0,4.0,65,0.00,CLR,,0.00,0.0,WeatherDisplay:10.37,2013-03-27 00:40:00,
2013-03-26 20:45:00,32.7,22.2,29.89,West,270,5.0,5.0,65,0.00,CLR,,0.00,0.0,WeatherDisplay:10.37,2013-03-27 00:45:00,
2013-03-26 20:50:00,32.8,22.0,29.89,West,269,4.0,4.0,64,0.00,CLR,,0.00,0.0,WeatherDisplay:10.37,2013-03-27 00:50:00,
2013-03-26 20:55:00,33.1,22.2,29.89,West,281,9.0,9.0,64,0.00,CLR,,0.00,0.0,WeatherDisplay:10.37,2013-03-27 00:55:00,
2013-03-26 21:00:00,33.7,23.2,29.89,NW,315,9.0,9.0,65,0.00,CLR,,0.00,0.0,WeatherDisplay:10.37,2013-03-27 01:00:00,
2013-03-26 21:05:00,34.0,23.5,29.89,NW,309,9.2,9.2,65,0.00,CLR,,0.00,0.0,WeatherDisplay:10.37,2013-03-27 01:05:00,
2013-03-26 21:10:00,34.3,23.7,29.89,WNW,300,9.2,9.2,65,0.00,CLR,,0.00,0.0,WeatherDisplay:10.37,2013-03-27 01:10:00,
2013-03-26 21:15:00,34.4,23.8,29.90,NW,314,6.0,6.0,65,0.00,CLR,,0.00,0.0,WeatherDisplay:10.37,2013-03-27 01:15:00,
2013-03-26 21:20:00,34.6,24.0,29.90,West,279,7.0,7.0,65,0.00,CLR,,0.00,0.0,WeatherDisplay:10.37,2013-03-27 01:20:00,
2013-03-26 21:25:00,34.4,24.2,29.90,WNW,296,10.4,10.4,66,0.00,CLR,,0.00,0.0,WeatherDisplay:10.37,2013-03-27 01:25:00,
2013-03-26 21:30:00,34.4,24.2,29.90,West,269,6.0,6.0,66,0.00,CLR,,0.00,0.0,WeatherDisplay:10.37,2013-03-27 01:30:00,
2013-03-26 21:35:00,34.1,23.9,29.90,West,281,6.0,6.0,66,0.00,CLR,,0.00,0.0,WeatherDisplay:10.37,2013-03-27 01:35:00,
2013-03-26 21:40:00,34.0,24.2,29.91,WNW,302,5.0,5.0,67,0.00,CLR,,0.00,0.0,WeatherDisplay:10.37,2013-03-27 01:40:00,
2013-03-26 21:45:00,33.7,23.9,29.91,West,281,9.2,9.2,67,0.00,CLR,,0.00,0.0,WeatherDisplay:10.37,2013-03-27 01:45:00,
2013-03-26 21:50:00,33.4,24.0,29.91,West,281,2.3,2.3,68,0.00,CLR,,0.00,0.0,WeatherDisplay:10.37,2013-03-27 01:50:00,
2013-03-26 21:55:00,33.1,24.0,29.91,West,279,3.5,3.5,69,0.00,CLR,,0.00,0.0,WeatherDisplay:10.37,2013-03-27 01:55:00,
2013-03-26 22:00:00,32.7,23.6,29.91,West,277,3.5,3.5,69,0.00,CLR,,0.00,0.0,WeatherDisplay:10.37,2013-03-27 02:00:00,
2013-03-26 22:05:00,32.4,24.0,29.91,West,279,4.0,4.0,71,0.00,CLR,,0.00,0.0,WeatherDisplay:10.37,2013-03-27 02:05:00,
2013-03-26 22:10:00,31.9,23.9,29.91,West,279,0.0,0.0,72,0.00,CLR,,0.00,0.0,WeatherDisplay:10.37,2013-03-27 02:10:00,
2013-03-26 22:15:00,31.6,23.6,29.91,West,278,3.5,3.5,72,0.00,CLR,,0.00,0.0,WeatherDisplay:10.37,2013-03-27 02:15:00,
2013-03-26 22:20:00,31.2,23.5,29.91,West,278,0.0,0.0,73,0.00,CLR,,0.00,0.0,WeatherDisplay:10.37,2013-03-27 02:20:00,
2013-03-26 22:25:00,30.9,23.6,29.91,West,278,2.3,2.3,74,0.00,CLR,,0.00,0.0,WeatherDisplay:10.37,2013-03-27 02:25:00,
2013-03-26 22:30:00,30.6,23.9,29.92,West,278,0.0,0.0,76,0.00,CLR,,0.00,0.0,WeatherDisplay:10.37,2013-03-27 02:30:00,
2013-03-26 22:35:00,30.1,23.8,29.92,West,278,0.0,0.0,77,0.00,CLR,,0.00,0.0,WeatherDisplay:10.37,2013-03-27 02:35:00,
2013-03-26 22:40:00,29.7,23.7,29.92,West,278,2.0,2.0,78,0.00,CLR,,0.00,0.0,WeatherDisplay:10.37,2013-03-27 02:40:00,
2013-03-26 22:45:00,29.5,23.5,29.92,West,278,0.0,0.0,78,0.00,CLR,,0.00,0.0,WeatherDisplay:10.37,2013-03-27 02:45:00,
2013-03-26 22:50:00,29.4,24.0,29.92,West,278,1.2,0.0,80,0.00,CLR,,0.00,0.0,WeatherDisplay:10.37,2013-03-27 02:50:00,
2013-03-26 22:55:00,29.3,23.9,29.92,West,278,0.0,0.0,80,0.00,CLR,,0.00,0.0,WeatherDisplay:10.37,2013-03-27 02:55:00,
2013-03-26 23:00:00,29.3,24.2,29.92,West,278,0.0,0.0,81,0.00,CLR,,0.00,0.0,WeatherDisplay:10.37,2013-03-27 03:00:00,
2013-03-26 23:05:00,29.3,24.2,29.92,West,278,0.0,0.0,81,0.00,FEW,,0.00,0.0,WeatherDisplay:10.37,2013-03-27 03:05:00,
2013-03-26 23:10:00,29.3,24.5,29.92,West,276,3.0,3.0,82,0.00,FEW,,0.00,0.0,WeatherDisplay:10.37,2013-03-27 03:10:00,
2013-03-26 23:15:00,29.4,24.6,29.92,West,276,2.3,2.3,82,0.00,FEW,,0.00,0.0,WeatherDisplay:10.37,2013-03-27 03:15:00,
2013-03-26 23:20:00,29.5,24.7,29.92,West,276,4.0,4.0,82,0.00,FEW,,0.00,0.0,WeatherDisplay:10.37,2013-03-27 03:20:00,
2013-03-26 23:25:00,29.7,24.9,29.91,West,273,3.5,3.5,82,0.00,FEW,,0.00,0.0,WeatherDisplay:10.37,2013-03-27 03:25:00,
2013-03-26 23:30:00,29.8,25.0,29.91,West,272,1.2,1.2,82,0.00,FEW,,0.00,0.0,WeatherDisplay:10.37,2013-03-27 03:30:00,
2013-03-26 23:35:00,30.0,25.2,29.91,West,272,3.5,3.5,82,0.00,FEW,,0.00,0.0,WeatherDisplay:10.37,2013-03-27 03:35:00,
2013-03-26 23:40:00,30.0,25.2,29.91,West,271,2.3,2.3,82,0.00,FEW,,0.00,0.0,WeatherDisplay:10.37,2013-03-27 03:40:00,
2013-03-26 23:45:00,30.1,25.3,29.91,West,265,2.3,2.3,82,0.00,FEW,,0.00,0.0,WeatherDisplay:10.37,2013-03-27 03:45:00,
2013-03-26 23:50:00,30.1,25.0,29.91,West,264,1.2,0.0,81,0.00,FEW,,0.00,0.0,WeatherDisplay:10.37,2013-03-27 03:50:00,
2013-03-26 23:55:00,30.3,25.2,29.91,West,264,0.0,0.0,81,0.00,FEW,,0.00,0.0,WeatherDisplay:10.37,2013-03-27 03:55:00,